Latest Weather Observations for Cape Grim

IDT60801

Issued at 8:01 pm EDT Sunday 7 February 2016 (issued every 30 minutes, with the page automatically refreshed every 10 minutes)

About weather observations | Map of weather stations | Latest weather observations for TAS | Other Formats
Station Details ID: 091331 Name: CAPE GRIM Lat: -40.68 Lon: 144.69 Height: 86.0 m
Data from the previous 72 hours. | See also: Recent months at Cape Grim
Date/Time
EDT
Temp
°C
App
Temp
°C
Dew
Point
Rel
Hum
%
Delta-T
°C
Wind Press
QNH
hPa
Press
MSL
hPa
Rain
since 9 am
mm
Dir
 
Spd
km/h
Gust
km/h
Spd
kts
Gust
kts
07/08:00pm 19.6 19.1 16.8 84 1.7 NNW 15 19 8 10 1017.4 1017.3 0.0
07/07:50pm 20.1 20.1 17.1 83 1.8 NNW 13 15 7 8 1017.2 1017.1 0.0
07/07:30pm 20.3 20.3 17.1 82 2.0 N 13 17 7 9 1017.3 1017.2 0.0
07/07:16pm 20.2 19.5 16.4 79 2.3 N 15 19 8 10 1017.1 1017.0 0.0
07/07:00pm 20.7 19.7 16.5 77 2.5 NNE 17 24 9 13 1016.9 1016.8 0.0
07/06:33pm 20.5 19.9 17.5 83 1.8 NNE 17 20 9 11 1017.1 1017.0 0.0
07/06:30pm 20.3 19.5 17.1 82 2.0 NNE 17 20 9 11 1017.2 1017.1 0.0
07/06:00pm 21.1 19.2 16.7 76 2.7 NE 22 28 12 15 1017.1 1017.0 0.0
07/05:30pm 21.6 18.8 17.4 77 2.6 ENE 28 35 15 19 1016.6 1016.5 0.0
07/05:00pm 21.9 19.0 17.1 74 2.9 NE 28 35 15 19 1016.7 1016.6 0.0
07/04:30pm 22.1 18.7 16.8 72 3.2 NE 30 41 16 22 1016.8 1016.7 0.0
07/04:00pm 22.1 19.0 16.6 71 3.4 ENE 28 35 15 19 1017.0 1016.9 0.0
07/03:30pm 22.5 18.9 17.2 72 3.3 ENE 32 37 17 20 1017.1 1017.0 0.0
07/03:00pm 22.4 18.6 17.1 72 3.3 ENE 33 41 18 22 1017.0 1016.9 0.0
07/02:30pm 22.7 18.9 17.2 71 3.4 ENE 33 41 18 22 1017.1 1017.0 0.0
07/02:00pm 22.8 19.3 17.5 72 3.3 ENE 32 41 17 22 1017.3 1017.2 0.0
07/01:30pm 22.4 18.3 17.3 73 3.2 ENE 35 43 19 23 1017.1 1017.0 0.0
07/01:00pm 22.7 18.2 18.3 76 2.8 ENE 39 46 21 25 1017.0 1016.9 0.0
07/12:33pm 22.1 17.1 17.0 73 3.1 ENE 39 48 21 26 1017.1 1017.0 0.0
07/12:30pm 22.5 17.6 17.4 73 3.2 ENE 39 46 21 25 1017.1 1017.0 0.0
07/12:00pm 22.4 17.9 17.3 73 3.1 ENE 37 46 20 25 1017.3 1017.2 0.0
07/11:30am 21.8 17.9 17.8 78 2.5 ENE 35 43 19 23 1017.5 1017.4 0.0
07/11:04am 21.5 17.5 17.5 78 2.5 NE 35 43 19 23 1017.6 1017.5 0.0
07/11:00am 21.7 17.7 17.5 77 2.6 ENE 35 43 19 23 1017.8 1017.6 0.0
07/10:30am 21.7 18.0 17.5 77 2.6 ENE 33 44 18 24 1017.4 1017.3 0.0
07/10:00am 21.1 16.5 17.1 78 2.4 ENE 37 44 20 24 1017.1 1017.0 0.0
07/09:30am 20.6 15.7 17.4 82 2.0 ENE 39 48 21 26 1016.7 1016.6 0.0
07/09:00am 20.0 15.7 17.0 83 1.8 ENE 35 43 19 23 1016.8 1016.7 0.0
07/08:30am 19.6 15.7 17.0 85 1.6 ENE 33 41 18 22 1016.8 1016.7 0.0
07/08:00am 18.7 15.4 16.9 89 1.1 ENE 30 41 16 22 1016.4 1016.3 0.0
07/07:30am 18.3 14.9 16.8 91 0.9 ENE 30 37 16 20 1016.5 1016.4 0.0
07/07:13am 18.2 14.8 16.7 91 0.9 ENE 30 37 16 20 1016.4 1016.3 0.0
07/07:00am 18.2 15.2 16.7 91 0.9 ENE 28 35 15 19 1016.4 1016.3 0.0
07/06:30am 18.2 15.2 16.7 91 0.9 ENE 28 35 15 19 1016.4 1016.3 0.0
07/06:00am 18.2 15.1 16.5 90 1.0 ENE 28 35 15 19 1016.2 1016.1 0.0
07/05:30am 18.2 14.7 16.5 90 1.0 ENE 30 35 16 19 1015.8 1015.7 0.0
07/05:00am 18.2 14.2 16.7 91 0.9 ENE 33 41 18 22 1015.5 1015.4 0.0
07/04:30am 18.2 14.4 16.7 91 0.9 ENE 32 41 17 22 1015.5 1015.4 0.0
07/04:00am 18.1 14.1 16.6 91 0.9 ENE 33 41 18 22 1015.5 1015.4 0.0
07/03:30am 18.2 14.4 16.7 91 0.9 ENE 32 43 17 23 1015.8 1015.7 0.0
07/03:00am 18.1 14.3 16.6 91 0.9 ENE 32 37 17 20 1016.1 1016.0 0.0
07/02:30am 18.1 14.9 16.4 90 1.0 ENE 28 33 15 18 1016.5 1016.4 0.0
07/02:00am 18.2 15.1 16.5 90 1.0 ENE 28 33 15 18 1016.8 1016.7 0.0
07/01:30am 18.2 15.1 16.5 90 1.0 ENE 28 32 15 17 1017.1 1017.0 0.0
07/01:00am 18.1 15.8 16.6 91 0.9 ENE 24 30 13 16 1017.3 1017.2 0.0
07/12:30am 18.3 14.9 16.8 91 0.9 ENE 30 37 16 20 1016.9 1016.8 0.0
07/12:00am 18.4 14.7 16.9 91 0.9 ENE 32 37 17 20 1017.0 1016.9 0.0
 
Date/Time
EDT
Temp
°C
App
Temp
°C
Dew
Point
Rel
Hum
%
Delta-T
°C
Wind Press
QNH
hPa
Press
MSL
hPa
Rain
since 9 am
mm
Dir
 
Spd
km/h
Gust
km/h
Spd
kts
Gust
kts
06/11:57pm 18.4 14.7 16.9 91 0.9 ENE 32 37 17 20 1017.0 1016.9 0.0
06/11:30pm 18.6 14.4 17.1 91 0.9 ENE 35 43 19 23 1016.9 1016.8 0.0
06/11:00pm 18.7 14.5 17.2 91 0.9 ENE 35 44 19 24 1017.0 1016.9 0.0
06/10:36pm 18.6 14.7 16.9 90 1.0 ENE 33 46 18 25 1017.2 1017.1 0.0
06/10:30pm 18.6 14.7 16.9 90 1.0 ENE 33 46 18 25 1017.2 1017.1 0.0
06/10:00pm 18.5 13.0 16.7 89 1.1 ENE 41 50 22 27 1016.9 1016.8 0.0
06/09:30pm 18.4 14.0 16.6 89 1.1 E 35 44 19 24 1016.8 1016.7 0.0
06/09:00pm 18.6 13.7 16.4 87 1.3 E 37 44 20 24 1016.7 1016.6 0.0
06/08:30pm 18.8 13.4 16.0 84 1.7 E 39 48 21 26 1016.7 1016.6 0.0
06/08:29pm 18.8 13.4 16.0 84 1.7 E 39 50 21 27 1016.7 1016.6 0.0
06/08:00pm 19.2 13.8 16.1 82 1.9 E 39 48 21 26 1016.5 1016.4 0.0
06/07:58pm 19.2 13.8 16.1 82 1.9 E 39 48 21 26 1016.5 1016.4 0.0
06/07:30pm 19.7 14.0 16.2 80 2.1 ENE 41 50 22 27 1016.4 1016.3 0.0
06/07:00pm 20.3 15.0 16.3 78 2.4 E 39 50 21 27 1016.5 1016.4 0.0
06/06:30pm 20.0 15.0 16.2 79 2.3 E 37 50 20 27 1016.5 1016.4 0.0
06/06:00pm 20.3 14.2 16.1 77 2.5 ENE 43 52 23 28 1016.5 1016.4 0.0
06/05:30pm 20.7 14.6 16.3 76 2.7 ENE 43 54 23 29 1016.6 1016.5 0.0
06/05:00pm 20.9 14.4 15.7 72 3.1 ENE 44 54 24 29 1016.4 1016.3 0.0
06/04:46pm 21.3 14.8 15.6 70 3.4 ENE 44 63 24 34 1016.4 1016.3 0.0
06/04:30pm 21.4 14.1 15.5 69 3.5 ENE 48 57 26 31 1016.4 1016.3 0.0
06/04:00pm 21.7 14.9 15.8 69 3.5 E 46 57 25 31 1016.7 1016.6 0.0
06/03:30pm 21.9 15.4 15.5 67 3.8 ENE 44 56 24 30 1017.1 1017.0 0.0
06/03:00pm 22.3 16.1 15.9 67 3.9 ENE 43 54 23 29 1017.4 1017.3 0.0
06/02:30pm 21.7 15.3 15.5 68 3.7 ENE 43 54 23 29 1017.8 1017.6 0.0
06/02:00pm 21.7 14.8 15.5 68 3.7 ENE 46 57 25 31 1018.1 1017.9 0.0
06/01:30pm 21.8 15.4 15.4 67 3.8 ENE 43 52 23 28 1018.5 1018.3 0.0
06/01:00pm 21.8 15.4 14.2 62 4.4 ENE 41 52 22 28 1018.6 1018.4 0.0
06/12:30pm 21.5 14.7 14.2 63 4.3 ENE 43 56 23 30 1018.6 1018.4 0.0
06/12:00pm 21.5 15.5 14.4 64 4.2 ENE 39 48 21 26 1019.0 1018.8 0.0
06/11:35am 21.5 15.2 14.6 65 4.1 ENE 41 59 22 32 1018.9 1018.7 0.0
06/11:30am 22.1 16.1 15.5 66 4.0 ENE 41 50 22 27 1018.9 1018.7 0.0
06/11:00am 21.3 15.0 14.7 66 3.9 ENE 41 52 22 28 1019.3 1019.1 0.0
06/10:30am 20.1 14.4 15.1 73 3.0 ENE 39 48 21 26 1019.6 1019.4 0.0
06/10:00am 19.7 13.3 14.3 71 3.1 ENE 41 50 22 27 1019.4 1019.2 0.0
06/09:30am 19.6 13.4 15.0 75 2.7 ENE 41 48 22 26 1019.7 1019.5 0.0
06/09:00am 20.4 15.5 15.4 73 3.0 ENE 35 46 19 25 1020.0 1019.8 0.0
06/08:30am 18.9 13.0 13.7 72 3.0 ENE 37 44 20 24 1019.9 1019.7 0.0
06/08:00am 18.9 13.6 14.2 74 2.7 ENE 35 44 19 24 1019.6 1019.4 0.0
06/07:30am 18.8 14.0 15.5 81 2.0 ENE 35 44 19 24 1019.4 1019.2 0.0
06/07:00am 18.6 13.7 15.3 81 1.9 ENE 35 46 19 25 1019.0 1018.8 0.0
06/06:30am 17.8 13.4 15.1 84 1.6 ENE 32 43 17 23 1018.9 1018.7 0.0
06/06:00am 17.9 12.9 15.0 83 1.7 ENE 35 44 19 24 1018.7 1018.5 0.0
06/05:30am 17.7 13.2 15.0 84 1.6 NE 32 39 17 21 1018.8 1018.6 0.0
06/05:00am 17.8 13.4 15.1 84 1.6 NE 32 39 17 21 1019.0 1018.8 0.0
06/04:41am 18.0 13.5 15.3 84 1.6 NE 33 44 18 24 1019.0 1018.8 0.0
06/04:30am 17.9 14.0 15.5 86 1.4 NE 30 35 16 19 1019.2 1019.0 0.0
06/04:21am 18.1 14.7 15.9 87 1.3 ENE 28 35 15 19 1019.2 1019.0 0.0
06/04:00am 17.8 15.5 15.8 88 1.2 ENE 22 28 12 15 1019.4 1019.2 0.0
06/03:30am 17.3 15.3 15.6 90 1.0 ENE 20 26 11 14 1019.8 1019.6 0.0
06/03:00am 16.5 14.9 14.9 90 0.9 E 17 20 9 11 1020.3 1020.1 0.0
06/02:30am 15.9 14.4 14.3 90 0.9 E 15 17 8 9 1020.6 1020.4 0.0
06/02:00am 16.0 14.2 14.4 90 0.9 E 17 17 9 9 1020.9 1020.7 0.0
06/01:30am 16.2 14.5 14.6 90 0.9 ESE 17 17 9 9 1021.3 1021.1 0.0
06/01:00am 16.7 15.9 15.1 90 0.9 ESE 13 15 7 8 1021.5 1021.3 0.0
06/12:30am 16.3 15.3 14.5 89 1.0 E 13 13 7 7 1021.7 1021.5 0.0
06/12:00am 16.4 15.0 14.4 88 1.1 E 15 15 8 8 1021.8 1021.7 0.0
 
Date/Time
EDT
Temp
°C
App
Temp
°C
Dew
Point
Rel
Hum
%
Delta-T
°C
Wind Press
QNH
hPa
Press
MSL
hPa
Rain
since 9 am
mm
Dir
 
Spd
km/h
Gust
km/h
Spd
kts
Gust
kts
05/11:30pm 16.3 15.1 14.1 87 1.3 E 13 15 7 8 1021.8 1021.7 0.0
05/11:00pm 16.4 15.2 14.1 86 1.3 E 13 15 7 8 1022.0 1021.9 0.0
05/10:30pm 16.6 15.8 14.1 85 1.4 E 11 11 6 6 1022.3 1022.2 0.0
05/10:00pm 17.2 16.9 14.3 83 1.7 ESE 9 11 5 6 1022.4 1022.3 0.0
05/09:30pm 17.4 17.1 14.3 82 1.8 ESE 9 9 5 5 1022.2 1022.1 0.0
05/09:00pm 17.5 17.2 14.4 82 1.8 ESE 9 9 5 5 1021.9 1021.8 0.0
05/08:30pm 18.3 19.8 14.6 79 2.1 CALM 0 6 0 3 1021.7 1021.5 0.0
05/08:00pm 18.8 20.4 14.9 78 2.3 CALM 0 0 0 0 1021.5 1021.3 0.0
05/07:30pm 19.2 19.5 15.1 77 2.4 ENE 7 15 4 8 1021.3 1021.1 0.0
05/07:00pm 19.5 19.0 15.0 75 2.6 ENE 11 17 6 9 1021.2 1021.0 0.0
05/06:30pm 20.3 19.0 14.9 71 3.2 ENE 15 20 8 11 1021.2 1021.0 0.0
05/06:00pm 20.8 18.6 14.9 69 3.5 ENE 20 26 11 14 1021.2 1021.0 0.0
05/05:30pm 21.3 18.6 14.7 66 3.9 NE 22 28 12 15 1021.2 1021.0 0.0
05/05:00pm 21.5 19.1 13.9 62 4.4 NE 19 26 10 14 1021.3 1021.1 0.0
05/04:30pm 20.8 19.2 14.9 69 3.5 NNW 17 24 9 13 1021.4 1021.2 0.0
05/04:00pm 21.2 19.5 14.8 67 3.8 NNW 17 22 9 12 1021.6 1021.4 0.0
05/03:30pm 21.9 20.8 15.3 66 3.9 NNW 15 20 8 11 1021.7 1021.5 0.0
05/03:00pm 21.3 19.9 13.5 61 4.5 NNW 13 19 7 10 1021.9 1021.8 0.0
05/02:30pm 22.3 20.3 14.9 63 4.4 NNE 19 24 10 13 1022.1 1022.0 0.0
05/02:00pm 22.6 21.0 15.0 62 4.5 NE 17 22 9 12 1022.4 1022.3 0.0
05/01:30pm 22.0 19.9 14.6 63 4.4 NE 19 26 10 14 1022.7 1022.6 0.0
05/01:00pm 22.2 22.0 16.7 71 3.4 NNW 13 17 7 9 1023.0 1022.9 0.0
05/12:30pm 21.1 20.9 15.6 71 3.3 NW 11 17 6 9 1023.1 1023.0 0.0
05/12:00pm 20.0 19.5 14.8 72 3.0 NW 11 15 6 8 1023.3 1023.2 0.0
05/11:30am 20.9 20.8 15.9 73 3.0 WNW 11 13 6 7 1023.3 1023.2 0.0
05/11:00am 20.5 20.5 15.3 72 3.1 NW 9 13 5 7 1023.3 1023.2 0.0
05/10:30am 21.0 21.3 16.0 73 3.0 NW 9 13 5 7 1023.2 1023.1 0.0
05/10:00am 20.4 19.8 15.6 74 2.9 N 13 17 7 9 1023.0 1022.9 0.0
05/09:30am 20.3 20.0 16.5 79 2.3 ENE 13 17 7 9 1023.0 1022.9 0.0
05/09:00am 19.5 19.0 16.0 80 2.1 NNE 13 17 7 9 1022.9 1022.8 0.0
05/08:30am 18.7 18.3 15.2 80 2.1 NE 11 13 6 7 1022.5 1022.4 0.0
05/08:00am 17.2 17.0 14.7 85 1.4 ENE 9 11 5 6 1022.3 1022.2 0.0
05/07:30am 15.8 15.4 14.0 89 1.0 NE 9 11 5 6 1021.9 1021.8 0.0
05/07:00am 14.9 13.5 13.3 90 0.9 ENE 13 15 7 8 1021.7 1021.5 0.0
05/06:30am 13.8 12.4 12.2 90 0.9 ENE 11 17 6 9 1021.4 1021.2 0.0
05/06:00am 12.6 10.8 11.0 90 0.8 ENE 11 15 6 8 1021.2 1021.0 0.0
05/05:30am 12.2 9.9 10.3 88 1.0 E 13 17 7 9 1020.9 1020.7 0.0
05/05:00am 12.6 9.0 10.7 88 1.0 E 20 20 11 11 1020.7 1020.5 0.0
05/04:30am 12.2 9.0 9.9 86 1.2 E 17 20 9 11 1020.5 1020.3 0.0
05/04:00am 12.3 8.2 10.0 86 1.2 ESE 22 24 12 13 1020.3 1020.1 0.0
05/03:30am 12.4 8.2 9.8 84 1.3 ESE 22 26 12 14 1020.3 1020.1 0.0
05/03:00am 12.8 9.1 10.0 83 1.4 SE 20 24 11 13 1020.4 1020.2 0.0
05/02:30am 13.0 9.3 9.6 80 1.7 SE 19 24 10 13 1020.6 1020.4 0.0
05/02:00am 13.4 10.2 10.0 80 1.8 S 17 19 9 10 1020.6 1020.4 0.0
05/01:30am 13.7 10.0 10.1 79 1.9 S 20 26 11 14 1020.6 1020.4 0.0
05/01:00am 13.7 10.5 10.1 79 1.9 S 17 20 9 11 1020.7 1020.5 0.0
05/12:30am 13.8 10.6 10.0 78 2.0 S 17 24 9 13 1020.6 1020.4 0.0
05/12:00am 14.2 10.8 10.4 78 2.0 S 19 24 10 13 1020.6 1020.4 0.0
 
Date/Time
EDT
Temp
°C
App
Temp
°C
Dew
Point
Rel
Hum
%
Delta-T
°C
Wind Press
QNH
hPa
Press
MSL
hPa
Rain
since 9 am
mm
Dir
 
Spd
km/h
Gust
km/h
Spd
kts
Gust
kts
04/11:30pm 14.4 9.9 10.2 76 2.2 S 24 35 13 19 1020.7 1020.5 0.0
04/11:00pm 14.6 8.6 10.2 75 2.3 S 32 46 17 25 1020.8 1020.6 0.0
04/10:30pm 14.9 9.0 10.5 75 2.3 SSW 32 44 17 24 1020.9 1020.7 0.0
04/10:27pm 14.9 9.0 10.5 75 2.3 SSW 32 50 17 27 1020.9 1020.7 0.0
04/10:00pm 15.0 7.3 10.2 73 2.5 SSW 41 54 22 29 1020.8 1020.6 0.0
04/09:33pm 15.1 7.8 10.3 73 2.5 SSW 39 57 21 31 1020.7 1020.5 0.0
04/09:30pm 15.2 8.3 10.4 73 2.5 SSW 37 52 20 28 1020.7 1020.5 0.0
04/09:00pm 15.5 7.9 10.5 72 2.6 SSW 41 52 22 28 1020.3 1020.1 0.0
04/08:30pm 15.6 8.2 9.9 69 3.0 SSW 39 50 21 27 1020.1 1019.9 0.0

Other Formats:

Comma delimited format used in spreadsheet applications
http://www.bom.gov.au/fwo/IDT60801/IDT60801.95954.axf

JavaScript Object Notation format (JSON) in row-major order
http://www.bom.gov.au/fwo/IDT60801/IDT60801.95954.json